Time;durP1;ratioP1;P1;durP2;ratioP2;P2;SDS_P1;SDS_P2;PMS_P1;PMS_P2;Temp;Humidity;BMP_temperature;BMP_pressure;BME280_temperature;BME280_humidity;BME280_pressure;Samples;Min_cycle;Max_cycle;Signal;HPM_P1;HPM_P2
2022/09/14 00:02:05;;;;;;;;;14.80;14.80;29.80;99.90;;;;;;4958327;28;8855;-65
2022/09/14 00:04:37;;;;;;;;;10.20;10.20;29.70;99.90;;;;;;4969289;28;8863;-65
2022/09/14 00:07:09;;;;;;;;;15.80;15.80;29.70;99.90;;;;;;4957642;28;8906;-67
2022/09/14 00:09:39;;;;;;;;;14.20;14.20;29.70;99.90;;;;;;4969521;28;8931;-68
2022/09/14 00:12:11;;;;;;;;;14.60;14.60;29.70;99.90;;;;;;4957169;28;9646;-67
2022/09/14 00:14:41;;;;;;;;;12.00;12.00;29.70;99.90;;;;;;4950801;28;8878;-68
2022/09/14 00:17:12;;;;;;;;;13.80;13.80;29.50;99.90;;;;;;4950887;28;8851;-69
2022/09/14 00:19:44;;;;;;;;;12.40;12.40;29.50;99.90;;;;;;4957980;28;8847;-68
2022/09/14 00:22:14;;;;;;;;;9.80;9.80;29.50;99.90;;;;;;4952760;28;8851;-67
2022/09/14 00:24:46;;;;;;;;;12.40;12.40;29.40;99.90;;;;;;4967311;28;8868;-67
2022/09/14 00:27:17;;;;;;;;;12.20;12.20;29.50;99.90;;;;;;4953711;28;8869;-67
2022/09/14 00:29:48;;;;;;;;;12.20;12.20;29.40;99.90;;;;;;4957139;28;8921;-67
2022/09/14 00:32:21;;;;;;;;;15.80;15.80;29.40;99.90;;;;;;4970000;28;8879;-68
2022/09/14 00:34:51;;;;;;;;;13.00;12.80;29.40;99.90;;;;;;4955504;28;8811;-66
2022/09/14 00:37:22;;;;;;;;;11.40;11.40;29.30;99.90;;;;;;4969933;28;8875;-65
2022/09/14 00:39:53;;;;;;;;;12.40;11.00;29.30;99.90;;;;;;4958615;28;8839;-65
2022/09/14 00:42:25;;;;;;;;;11.00;11.00;29.30;99.90;;;;;;4953640;28;8909;-63
2022/09/14 00:45:02;;;;;;;;;15.40;13.80;29.20;99.90;;;;;;4954903;28;8850;-68
2022/09/14 00:47:32;;;;;;;;;14.00;14.00;29.10;99.90;;;;;;4955397;28;8909;-68
2022/09/14 00:50:04;;;;;;;;;8.80;8.80;29.10;99.90;;;;;;4973800;28;8867;-64
2022/09/14 00:52:38;;;;;;;;;10.80;10.60;29.10;99.90;;;;;;4955080;28;9549;-64
2022/09/14 00:55:15;;;;;;;;;13.20;13.20;29.10;99.90;;;;;;4952101;28;9416;-64
2022/09/14 00:57:50;;;;;;;;;13.20;13.20;29.00;99.90;;;;;;4955322;28;8847;-65
2022/09/14 01:00:24;;;;;;;;;13.40;13.40;29.00;99.90;;;;;;4949394;28;8866;-69
2022/09/14 01:02:54;;;;;;;;;12.80;12.80;28.90;99.90;;;;;;4949176;28;8863;-68
2022/09/14 01:05:56;;;;;;;;;13.20;13.20;28.90;99.90;;;;;;4950561;28;9677;-67
2022/09/14 01:08:43;;;;;;;;;10.20;10.20;28.80;99.90;;;;;;4950770;28;8855;-68
2022/09/14 01:11:25;;;;;;;;;12.60;12.60;28.80;99.90;;;;;;4950795;28;8901;-67
2022/09/14 01:14:13;;;;;;;;;10.00;10.00;28.70;99.90;;;;;;4979198;28;8862;-69
2022/09/14 01:17:01;;;;;;;;;11.60;11.60;28.70;99.90;;;;;;4950251;28;8897;-68
2022/09/14 01:19:40;;;;;;;;;12.00;12.00;28.80;99.90;;;;;;4980527;28;8858;-68
2022/09/14 01:22:20;;;;;;;;;13.20;11.80;28.80;99.90;;;;;;4969288;28;8854;-68
2022/09/14 01:25:05;;;;;;;;;9.60;9.00;28.70;99.90;;;;;;4975727;28;8905;-64
2022/09/14 01:27:42;;;;;;;;;13.00;12.60;28.60;99.90;;;;;;4967709;28;8897;-64
2022/09/14 01:30:21;;;;;;;;;12.60;12.60;28.60;99.90;;;;;;4949512;28;9613;-64
2022/09/14 01:33:03;;;;;;;;;12.60;12.60;28.50;99.90;;;;;;4953661;28;8850;-65
2022/09/14 01:35:50;;;;;;;;;11.80;11.80;28.50;99.90;;;;;;4975940;28;8839;-65
2022/09/14 01:38:31;;;;;;;;;9.80;9.80;28.50;99.90;;;;;;4951689;28;8847;-64
2022/09/14 01:41:08;;;;;;;;;14.00;14.00;28.50;99.90;;;;;;4979115;28;9613;-63
2022/09/14 01:44:06;;;;;;;;;12.20;12.20;28.50;99.90;;;;;;4953901;28;8897;-64
2022/09/14 01:46:46;;;;;;;;;10.50;10.50;28.50;99.90;;;;;;4960301;28;8905;-68
2022/09/14 01:49:26;;;;;;;;;12.00;12.00;28.30;99.90;;;;;;4979440;28;8860;-67
2022/09/14 01:52:05;;;;;;;;;15.60;14.40;28.40;99.90;;;;;;4971479;28;8847;-65
2022/09/14 01:54:56;;;;;;;;;13.00;13.00;28.30;99.90;;;;;;4958645;28;8855;-64
2022/09/14 01:57:38;;;;;;;;;12.00;12.00;28.30;99.90;;;;;;4955757;28;9723;-65
2022/09/14 02:00:15;;;;;;;;;14.00;14.00;28.30;99.90;;;;;;4984949;28;9235;-64
2022/09/14 02:03:12;;;;;;;;;13.00;13.00;28.20;99.90;;;;;;4955192;28;10023;-65
2022/09/14 02:05:57;;;;;;;;;11.40;11.40;28.20;99.90;;;;;;4980121;28;8881;-69
2022/09/14 02:08:32;;;;;;;;;12.20;12.20;28.10;99.90;;;;;;4956834;28;8842;-68
2022/09/14 02:11:05;;;;;;;;;13.75;13.75;28.10;99.90;;;;;;4984100;28;8902;-65
2022/09/14 02:13:37;;;;;;;;;12.20;12.20;28.10;99.90;;;;;;4958073;28;9020;-64
2022/09/14 02:16:09;;;;;;;;;11.50;11.50;28.00;99.90;;;;;;4967302;28;8858;-69
2022/09/14 02:18:42;;;;;;;;;15.00;15.00;28.00;99.90;;;;;;4956089;28;8858;-68
2022/09/14 02:21:33;;;;;;;;;13.50;13.50;28.00;99.90;;;;;;4973482;28;8851;-68
2022/09/14 02:24:05;;;;;;;;;12.80;12.80;27.90;99.90;;;;;;4961368;28;8863;-66
2022/09/14 02:26:37;;;;;;;;;16.50;16.50;27.90;99.90;;;;;;4982241;28;8847;-68
2022/09/14 02:29:11;;;;;;;;;13.50;13.50;27.90;99.90;;;;;;4956299;28;8851;-68
2022/09/14 02:31:59;;;;;;;;;16.00;16.00;27.90;99.90;;;;;;4954070;28;8843;-64
2022/09/14 02:34:34;;;;;;;;;12.75;12.75;27.80;99.90;;;;;;4958832;28;8863;-65
2022/09/14 02:37:35;;;;;;;;;17.00;15.25;27.80;99.90;;;;;;4953459;28;8839;-68
2022/09/14 02:40:23;;;;;;;;;16.25;16.25;27.70;99.90;;;;;;4958954;28;8893;-69
2022/09/14 02:43:10;;;;;;;;;13.00;13.00;27.80;99.90;;;;;;4952272;28;8933;-70
2022/09/14 02:46:00;;;;;;;;;15.25;15.25;27.80;99.90;;;;;;4956714;28;8859;-65
2022/09/14 02:48:57;;;;;;;;;15.00;15.00;27.70;99.90;;;;;;4985616;28;8862;-64
2022/09/14 02:51:41;;;;;;;;;16.00;16.00;27.60;99.90;;;;;;4956121;28;9986;-68
2022/09/14 02:54:40;;;;;;;;;15.25;14.50;27.60;99.90;;;;;;4956710;28;8886;-70
2022/09/14 02:57:10;;;;;;;;;15.00;15.00;27.50;99.90;;;;;;4955572;28;8863;-64
2022/09/14 02:59:41;;;;;;;;;16.00;16.00;27.50;99.90;;;;;;4959121;28;8893;-64
2022/09/14 03:02:11;;;;;;;;;16.50;16.50;27.50;99.90;;;;;;4971063;28;8843;-70
2022/09/14 03:04:44;;;;;;;;;18.00;17.50;27.50;99.90;;;;;;4956958;28;8889;-69
2022/09/14 03:07:15;;;;;;;;;15.50;15.50;27.40;99.90;;;;;;4957119;28;9619;-70
2022/09/14 03:09:46;;;;;;;;;14.75;14.75;27.40;99.90;;;;;;4959497;28;8878;-66
2022/09/14 03:12:17;;;;;;;;;17.75;17.75;27.40;99.90;;;;;;4956254;28;8874;-65
2022/09/14 03:14:49;;;;;;;;;15.25;15.25;27.40;99.90;;;;;;4973523;28;8866;-64
2022/09/14 03:17:20;;;;;;;;;17.75;16.00;27.40;99.90;;;;;;4970076;28;8867;-65
2022/09/14 03:19:50;;;;;;;;;16.25;16.25;27.30;99.90;;;;;;4958257;28;8863;-65
2022/09/14 03:22:21;;;;;;;;;18.50;18.50;27.30;99.90;;;;;;4956892;28;8866;-64
2022/09/14 03:24:52;;;;;;;;;15.50;15.50;27.30;99.90;;;;;;4956714;28;8874;-70
2022/09/14 03:27:22;;;;;;;;;15.50;15.50;27.30;99.90;;;;;;4955974;28;8923;-70
2022/09/14 03:29:53;;;;;;;;;16.75;16.75;27.30;99.90;;;;;;4954762;28;9021;-65
2022/09/14 03:32:25;;;;;;;;;16.50;15.50;27.20;99.90;;;;;;4954135;28;8885;-65
2022/09/14 03:34:56;;;;;;;;;17.50;17.50;27.20;99.90;;;;;;4957735;28;8847;-64
2022/09/14 03:37:26;;;;;;;;;15.00;15.00;27.10;99.90;;;;;;4957299;28;8843;-65
2022/09/14 03:39:57;;;;;;;;;16.50;16.00;27.10;99.90;;;;;;4958802;28;8898;-65
2022/09/14 03:42:31;;;;;;;;;18.00;18.00;27.10;99.90;;;;;;4958427;28;9618;-65
2022/09/14 03:45:03;;;;;;;;;17.00;17.00;27.10;99.90;;;;;;4957673;28;8933;-68
2022/09/14 03:47:34;;;;;;;;;17.50;17.50;27.10;99.90;;;;;;4955786;28;8858;-69
2022/09/14 03:50:07;;;;;;;;;16.00;16.00;27.00;99.90;;;;;;4984740;28;8850;-65
2022/09/14 03:52:39;;;;;;;;;16.25;16.25;27.00;99.90;;;;;;4955796;28;8831;-64
2022/09/14 03:55:10;;;;;;;;;16.00;16.00;27.00;99.90;;;;;;4950607;28;8843;-68
2022/09/14 03:57:43;;;;;;;;;19.50;19.50;26.90;99.90;;;;;;4956593;28;8835;-69
2022/09/14 04:00:14;;;;;;;;;18.50;18.50;26.80;99.90;;;;;;4953295;28;8867;-68
2022/09/14 04:02:45;;;;;;;;;18.75;18.75;26.90;99.90;;;;;;4981526;28;8874;-69
2022/09/14 04:05:22;;;;;;;;;17.25;17.25;26.80;99.90;;;;;;4968590;28;8854;-68
2022/09/14 04:07:52;;;;;;;;;21.00;21.00;26.80;99.90;;;;;;4963481;28;8865;-69
2022/09/14 04:10:21;;;;;;;;;18.25;18.25;26.80;99.90;;;;;;4956325;28;8847;-64
2022/09/14 04:12:53;;;;;;;;;16.00;15.00;26.70;99.90;;;;;;4949921;28;8838;-64
2022/09/14 04:15:24;;;;;;;;;18.25;18.25;26.80;99.90;;;;;;4956086;28;9884;-64
2022/09/14 04:17:54;;;;;;;;;18.00;18.00;26.70;99.90;;;;;;4950886;28;8909;-65
2022/09/14 04:20:27;;;;;;;;;18.00;18.00;26.70;99.90;;;;;;4951159;28;8847;-65
2022/09/14 04:22:57;;;;;;;;;18.00;18.00;26.60;99.90;;;;;;4954479;28;9573;-65
2022/09/14 04:25:30;;;;;;;;;20.25;18.25;26.60;99.90;;;;;;4938618;28;8883;-68
2022/09/14 04:28:03;;;;;;;;;15.25;15.25;26.50;99.90;;;;;;4938629;28;8922;-68
2022/09/14 04:31:02;;;;;;;;;17.75;17.75;26.60;99.90;;;;;;4977730;28;8879;-64
2022/09/14 04:33:33;;;;;;;;;18.00;18.00;26.40;99.90;;;;;;4965992;28;8909;-65
2022/09/14 04:36:11;;;;;;;;;16.75;16.75;26.30;99.90;;;;;;4958159;28;9004;-70
2022/09/14 04:38:41;;;;;;;;;18.25;18.25;26.20;99.90;;;;;;4952112;28;8863;-68
2022/09/14 04:41:17;;;;;;;;;19.25;19.25;26.10;99.90;;;;;;4954976;28;8842;-69
2022/09/14 04:43:49;;;;;;;;;18.00;18.00;26.00;99.90;;;;;;4975528;28;8859;-67
2022/09/14 04:46:31;;;;;;;;;20.00;20.00;25.90;99.90;;;;;;4950994;28;8913;-69
2022/09/14 04:49:02;;;;;;;;;19.25;19.25;25.80;99.90;;;;;;4978722;28;8851;-68
2022/09/14 04:51:36;;;;;;;;;18.00;18.00;25.70;99.90;;;;;;4955768;28;8863;-64
2022/09/14 04:54:14;;;;;;;;;20.00;20.00;25.60;99.90;;;;;;4965364;28;8871;-65
2022/09/14 04:56:45;;;;;;;;;18.00;17.00;25.70;99.90;;;;;;4955389;28;9749;-65
2022/09/14 04:59:18;;;;;;;;;17.25;17.25;25.70;99.90;;;;;;4953911;28;9025;-64
2022/09/14 05:01:50;;;;;;;;;17.50;17.50;25.60;99.90;;;;;;4980311;28;8858;-68
2022/09/14 05:04:21;;;;;;;;;19.00;19.00;25.60;99.90;;;;;;4948226;28;8899;-69
2022/09/14 05:06:52;;;;;;;;;17.00;17.00;25.50;99.90;;;;;;4953644;28;8878;-65
2022/09/14 05:09:26;;;;;;;;;16.25;16.25;25.50;99.90;;;;;;4968436;28;8885;-64
2022/09/14 05:11:57;;;;;;;;;19.50;18.25;25.40;99.90;;;;;;4982690;28;8989;-68
2022/09/14 05:14:27;;;;;;;;;19.00;19.00;25.40;99.90;;;;;;4971850;28;8881;-68
2022/09/14 05:17:01;;;;;;;;;15.75;15.75;25.50;99.90;;;;;;4978876;28;8868;-68
2022/09/14 05:19:38;;;;;;;;;15.00;15.00;25.50;99.90;;;;;;4960265;28;8854;-68
2022/09/14 05:22:09;;;;;;;;;16.75;16.75;25.60;99.90;;;;;;4958500;28;8863;-65
2022/09/14 05:24:40;;;;;;;;;19.25;19.25;25.70;99.90;;;;;;4960767;28;8868;-65
2022/09/14 05:27:10;;;;;;;;;19.50;19.50;25.70;99.90;;;;;;4957861;28;8835;-64
2022/09/14 05:29:41;;;;;;;;;18.50;18.50;25.50;99.90;;;;;;4959040;28;8921;-64
2022/09/14 05:32:12;;;;;;;;;22.25;20.25;25.30;99.90;;;;;;4981630;28;8850;-69
2022/09/14 05:34:43;;;;;;;;;20.75;20.75;25.20;99.90;;;;;;4957030;28;8882;-68
2022/09/14 05:37:16;;;;;;;;;19.00;18.25;25.20;99.90;;;;;;4969152;28;8873;-68
2022/09/14 05:39:51;;;;;;;;;22.25;22.25;25.30;99.90;;;;;;4958430;28;8889;-67
2022/09/14 05:42:21;;;;;;;;;21.75;21.75;25.20;99.90;;;;;;4958026;28;8851;-68
2022/09/14 05:45:02;;;;;;;;;19.25;19.25;25.20;99.90;;;;;;4969210;28;8883;-68
2022/09/14 05:47:36;;;;;;;;;18.00;18.00;25.10;99.90;;;;;;4971461;28;8854;-69
2022/09/14 05:50:08;;;;;;;;;19.25;19.25;25.10;99.90;;;;;;4978061;28;9570;-69
2022/09/14 05:52:38;;;;;;;;;20.00;20.00;25.10;99.90;;;;;;4959213;28;9597;-67
2022/09/14 05:55:10;;;;;;;;;18.75;18.75;25.00;99.90;;;;;;4982563;28;8914;-68
2022/09/14 05:57:42;;;;;;;;;18.75;18.75;25.10;99.90;;;;;;4959707;28;9644;-69
2022/09/14 06:00:13;;;;;;;;;16.25;16.25;25.00;99.90;;;;;;4960606;28;8887;-69
2022/09/14 06:02:49;;;;;;;;;17.75;17.75;25.00;99.90;;;;;;4955934;28;8835;-68
2022/09/14 06:05:20;;;;;;;;;20.00;20.00;25.00;99.90;;;;;;4984004;28;8886;-64
2022/09/14 06:07:53;;;;;;;;;20.00;20.00;25.00;99.90;;;;;;4954729;28;8847;-65
2022/09/14 06:10:23;;;;;;;;;19.00;19.00;25.00;99.90;;;;;;4953760;28;8859;-68
2022/09/14 06:12:59;;;;;;;;;17.50;17.50;24.80;99.90;;;;;;4954079;28;8905;-69
2022/09/14 06:15:30;;;;;;;;;18.50;18.50;24.80;99.90;;;;;;4960226;28;8847;-69
2022/09/14 06:18:00;;;;;;;;;19.50;19.50;24.80;99.90;;;;;;4954440;28;8858;-69
2022/09/14 06:20:30;;;;;;;;;20.00;20.00;24.80;99.90;;;;;;4946102;28;8908;-64
2022/09/14 06:23:01;;;;;;;;;19.00;19.00;24.80;99.90;;;;;;4959946;28;8878;-65
2022/09/14 06:25:32;;;;;;;;;16.25;16.25;24.70;99.90;;;;;;4956109;28;8857;-65
2022/09/14 06:28:02;;;;;;;;;18.00;18.00;24.70;99.90;;;;;;4979003;28;8869;-64
2022/09/14 06:30:34;;;;;;;;;19.25;19.25;24.70;99.90;;;;;;4957618;28;8899;-64
2022/09/14 06:33:07;;;;;;;;;19.25;19.25;24.70;99.90;;;;;;4954164;28;8862;-65
2022/09/14 06:35:39;;;;;;;;;19.00;19.00;24.70;99.90;;;;;;4957253;28;8839;-63
2022/09/14 06:38:10;;;;;;;;;20.25;20.25;24.70;99.90;;;;;;4955048;28;8858;-64
2022/09/14 06:40:51;;;;;;;;;17.00;17.00;24.70;99.90;;;;;;4982286;28;8850;-64
2022/09/14 06:43:21;;;;;;;;;17.25;17.25;24.70;99.90;;;;;;4957212;28;8858;-65
2022/09/14 06:46:07;;;;;;;;;19.00;19.00;24.60;99.90;;;;;;4958339;28;8873;-64
2022/09/14 06:48:40;;;;;;;;;19.00;19.00;24.60;99.90;;;;;;4964161;28;8839;-64
2022/09/14 06:51:26;;;;;;;;;16.00;16.00;24.40;99.90;;;;;;4984711;28;8862;-65
2022/09/14 06:53:58;;;;;;;;;20.00;20.00;24.40;99.90;;;;;;4953814;28;9682;-65
2022/09/14 06:56:32;;;;;;;;;18.75;18.75;24.40;99.90;;;;;;4957374;28;8843;-64
2022/09/14 06:59:04;;;;;;;;;18.50;18.50;24.40;99.90;;;;;;4953653;28;8866;-64
2022/09/14 07:01:36;;;;;;;;;15.50;15.50;24.40;99.90;;;;;;4979046;28;8977;-68
2022/09/14 07:04:09;;;;;;;;;19.75;19.75;24.30;99.90;;;;;;4970034;28;8851;-68
2022/09/14 07:06:43;;;;;;;;;17.50;17.50;24.30;99.90;;;;;;4954940;28;8905;-69
2022/09/14 07:09:16;;;;;;;;;16.00;16.00;24.30;99.90;;;;;;4955896;28;8882;-68
2022/09/14 07:11:48;;;;;;;;;15.00;15.00;24.30;99.90;;;;;;4969021;28;8855;-68
2022/09/14 07:14:19;;;;;;;;;19.50;19.50;24.30;99.90;;;;;;4958003;28;8920;-69
2022/09/14 07:16:49;;;;;;;;;20.75;19.00;24.20;99.90;;;;;;4953460;28;8861;-66
2022/09/14 07:19:23;;;;;;;;;15.00;15.00;24.30;99.90;;;;;;4955896;28;8870;-64
2022/09/14 07:21:57;;;;;;;;;19.25;19.25;24.20;99.90;;;;;;4951984;28;8871;-68
2022/09/14 07:24:27;;;;;;;;;19.00;19.00;24.20;99.90;;;;;;4957428;28;8858;-68
2022/09/14 07:27:04;;;;;;;;;19.75;19.75;24.20;99.90;;;;;;4955560;28;8866;-69
2022/09/14 07:29:34;;;;;;;;;21.00;21.00;24.20;99.90;;;;;;4957850;28;8859;-69
2022/09/14 07:32:05;;;;;;;;;17.50;17.50;24.20;99.90;;;;;;4970236;28;8859;-65
2022/09/14 07:34:36;;;;;;;;;16.50;16.50;24.20;99.90;;;;;;4983563;28;8871;-65
2022/09/14 07:37:07;;;;;;;;;19.50;19.50;24.30;99.90;;;;;;4964302;28;8885;-64
2022/09/14 07:39:38;;;;;;;;;17.50;17.50;24.10;99.90;;;;;;4958660;28;8867;-64
2022/09/14 07:42:08;;;;;;;;;16.50;16.50;24.10;99.90;;;;;;4984940;28;8886;-64
2022/09/14 07:44:39;;;;;;;;;18.50;18.50;24.00;99.90;;;;;;4957869;28;8879;-65
2022/09/14 07:47:11;;;;;;;;;18.25;18.25;23.90;99.90;;;;;;4953553;28;8865;-68
2022/09/14 07:49:45;;;;;;;;;21.25;21.25;23.90;99.90;;;;;;4956058;28;8863;-68
2022/09/14 07:52:18;;;;;;;;;18.50;18.50;23.90;99.90;;;;;;4951592;28;8878;-69
2022/09/14 07:54:48;;;;;;;;;20.00;20.00;24.00;99.90;;;;;;4955567;28;8878;-68
2022/09/14 07:57:20;;;;;;;;;19.50;19.50;23.90;99.90;;;;;;4958439;28;8885;-68
2022/09/14 08:00:11;;;;;;;;;19.25;19.25;23.90;99.90;;;;;;4957626;28;9266;-68
2022/09/14 08:02:42;;;;;;;;;19.00;19.00;23.90;99.90;;;;;;4967455;28;8831;-68
2022/09/14 08:05:15;;;;;;;;;17.25;17.25;23.80;99.90;;;;;;4980745;28;8874;-69
2022/09/14 08:07:46;;;;;;;;;19.25;19.25;23.80;99.90;;;;;;4950184;28;8909;-69
2022/09/14 08:10:20;;;;;;;;;20.25;20.25;23.70;99.90;;;;;;4951707;28;8988;-65
2022/09/14 08:12:55;;;;;;;;;20.75;20.75;23.70;99.90;;;;;;4951466;28;8867;-65
2022/09/14 08:15:26;;;;;;;;;16.00;16.00;23.70;99.90;;;;;;4955032;28;8963;-68
2022/09/14 08:17:57;;;;;;;;;20.25;20.25;23.90;99.90;;;;;;4960653;28;8889;-68
2022/09/14 08:20:29;;;;;;;;;16.75;16.75;23.90;99.90;;;;;;4969671;28;8871;-63
2022/09/14 08:23:01;;;;;;;;;20.50;20.50;23.90;99.90;;;;;;4954439;28;8863;-64
2022/09/14 08:25:32;;;;;;;;;20.00;20.00;23.70;99.90;;;;;;4952645;28;8846;-68
2022/09/14 08:28:04;;;;;;;;;17.75;17.75;23.50;99.90;;;;;;4954074;28;8831;-68
2022/09/14 08:30:34;;;;;;;;;20.25;20.25;23.60;99.90;;;;;;4956011;28;8901;-69
2022/09/14 08:33:09;;;;;;;;;19.50;19.50;23.60;99.90;;;;;;4958455;28;8920;-68
2022/09/14 08:35:45;;;;;;;;;19.50;19.50;23.60;99.90;;;;;;4955078;28;8862;-64
2022/09/14 08:38:26;;;;;;;;;19.75;19.75;23.70;99.90;;;;;;4954770;28;8874;-64
2022/09/14 08:41:03;;;;;;;;;15.50;15.50;23.60;99.90;;;;;;4957675;28;8858;-68
2022/09/14 08:43:32;;;;;;;;;19.50;19.50;23.60;99.90;;;;;;4953005;28;8913;-69
2022/09/14 08:46:08;;;;;;;;;19.00;19.00;23.50;99.90;;;;;;4954101;28;8858;-69
2022/09/14 08:48:45;;;;;;;;;20.25;19.75;23.50;99.90;;;;;;4956928;28;8871;-67
2022/09/14 08:51:18;;;;;;;;;19.00;19.00;23.50;99.90;;;;;;4966755;28;8858;-65
2022/09/14 08:53:52;;;;;;;;;19.25;19.25;23.50;99.90;;;;;;4951366;28;8885;-65
2022/09/14 08:56:33;;;;;;;;;13.00;13.00;23.50;99.90;;;;;;4954254;28;8881;-62
2022/09/14 08:59:05;;;;;;;;;19.75;19.75;23.40;99.90;;;;;;4949200;28;8913;-65
2022/09/14 09:02:01;;;;;;;;;19.50;19.50;23.40;99.90;;;;;;4957102;28;8882;-68
2022/09/14 09:04:37;;;;;;;;;19.00;19.00;23.40;99.90;;;;;;4956121;28;8884;-68
2022/09/14 09:07:29;;;;;;;;;18.67;18.67;23.40;99.90;;;;;;4957258;28;8893;-69
2022/09/14 09:10:00;;;;;;;;;20.75;20.75;23.40;99.90;;;;;;4957857;28;8886;-68
2022/09/14 09:12:41;;;;;;;;;21.00;21.00;23.40;99.90;;;;;;4955050;28;9005;-68
2022/09/14 09:15:24;;;;;;;;;20.75;20.75;23.40;99.90;;;;;;4957246;28;8905;-68
2022/09/14 09:18:06;;;;;;;;;22.00;22.00;23.30;99.90;;;;;;4960215;28;8862;-69
2022/09/14 09:20:45;;;;;;;;;20.00;20.00;23.20;99.90;;;;;;4956922;28;8870;-63
2022/09/14 09:23:17;;;;;;;;;19.50;19.50;23.20;99.90;;;;;;4953709;28;8890;-63
2022/09/14 09:25:46;;;;;;;;;18.75;18.75;23.30;99.90;;;;;;4959354;28;8859;-69
2022/09/14 09:28:21;;;;;;;;;19.75;19.75;23.20;99.90;;;;;;4954717;28;9606;-68
2022/09/14 09:30:59;;;;;;;;;16.25;16.25;23.10;99.90;;;;;;4970982;28;8827;-65
2022/09/14 09:33:49;;;;;;;;;16.50;16.50;23.10;99.90;;;;;;4942064;28;8903;-64
2022/09/14 09:36:33;;;;;;;;;21.67;21.67;23.20;99.90;;;;;;4956670;28;8886;-68
2022/09/14 09:39:04;;;;;;;;;19.25;19.25;23.20;99.90;;;;;;4973407;28;8835;-68
2022/09/14 09:42:09;;;;;;;;;18.25;18.25;23.40;99.90;;;;;;4974978;28;8962;-64
2022/09/14 09:45:02;;;;;;;;;21.00;21.00;23.20;99.90;;;;;;4982860;28;8847;-63
2022/09/14 09:47:36;;;;;;;;;20.00;20.00;23.20;99.90;;;;;;4969191;28;8901;-68
2022/09/14 09:50:23;;;;;;;;;21.00;21.00;23.20;99.90;;;;;;4968946;28;8893;-62
2022/09/14 09:53:00;;;;;;;;;19.25;19.25;23.00;99.90;;;;;;4955698;28;8882;-64
2022/09/14 09:55:39;;;;;;;;;19.50;19.50;23.00;99.90;;;;;;4954834;28;8875;-64
2022/09/14 09:58:43;;;;;;;;;23.00;23.00;23.00;99.90;;;;;;4958773;28;9568;-65
2022/09/14 10:01:27;;;;;;;;;19.75;19.75;22.90;99.90;;;;;;4951123;28;8855;-65
2022/09/14 10:04:15;;;;;;;;;19.75;19.75;22.90;99.90;;;;;;4969950;28;8858;-64
2022/09/14 10:06:53;;;;;;;;;19.00;19.00;22.90;99.90;;;;;;4956536;28;8997;-68
2022/09/14 10:09:28;;;;;;;;;20.25;20.25;22.90;99.90;;;;;;4957033;28;8862;-68
2022/09/14 10:12:03;;;;;;;;;18.00;18.00;22.80;99.90;;;;;;4956778;28;8870;-67
2022/09/14 10:14:39;;;;;;;;;19.75;19.75;22.80;99.90;;;;;;4970653;28;9613;-68
2022/09/14 10:17:21;;;;;;;;;18.00;18.00;22.80;99.90;;;;;;4960215;28;9729;-67
2022/09/14 10:19:54;;;;;;;;;21.50;21.50;22.70;99.90;;;;;;4958322;28;8871;-68
2022/09/14 10:22:33;;;;;;;;;22.00;22.00;22.70;99.90;;;;;;4958802;28;8882;-68
2022/09/14 10:25:13;;;;;;;;;18.75;18.75;22.70;99.90;;;;;;4953022;28;8843;-64
2022/09/14 10:27:54;;;;;;;;;21.25;21.25;22.70;99.90;;;;;;4956021;28;8847;-64
2022/09/14 10:30:48;;;;;;;;;18.75;18.75;22.80;99.90;;;;;;4955339;28;8842;-63
2022/09/14 10:33:19;;;;;;;;;20.25;20.25;22.90;99.90;;;;;;4953407;28;8901;-64
2022/09/14 10:36:01;;;;;;;;;20.00;20.00;22.70;99.90;;;;;;4958734;28;8855;-69
2022/09/14 10:38:57;;;;;;;;;19.50;19.50;22.60;99.90;;;;;;4951876;28;8846;-65
2022/09/14 10:41:44;;;;;;;;;18.33;18.33;22.70;99.90;;;;;;4956650;28;8834;-64
2022/09/14 10:44:24;;;;;;;;;21.00;21.00;22.70;99.90;;;;;;4982380;28;8863;-63
2022/09/14 10:47:17;;;;;;;;;20.50;20.50;22.70;99.90;;;;;;4953710;28;8855;-64
2022/09/14 10:50:21;;;;;;;;;21.50;21.50;22.60;99.90;;;;;;4965520;28;8834;-66
2022/09/14 10:53:10;;;;;;;;;20.25;20.25;22.70;99.90;;;;;;4954901;28;8863;-68
2022/09/14 10:55:43;;;;;;;;;21.25;21.25;22.50;99.90;;;;;;4953882;28;8834;-64
2022/09/14 10:58:30;;;;;;;;;19.25;19.25;22.50;99.90;;;;;;4954632;28;8843;-64
2022/09/14 11:01:19;;;;;;;;;20.00;20.00;22.50;99.90;;;;;;4951859;28;8850;-68
2022/09/14 11:04:05;;;;;;;;;21.25;21.25;22.60;99.90;;;;;;4964611;28;8882;-68
2022/09/14 11:07:08;;;;;;;;;23.25;23.25;22.60;99.90;;;;;;4957698;28;8874;-69
2022/09/14 11:09:58;;;;;;;;;20.75;20.75;22.60;99.90;;;;;;4952748;28;8876;-68
2022/09/14 11:12:29;;;;;;;;;18.00;18.00;22.50;99.90;;;;;;4956381;28;8881;-64
2022/09/14 11:15:17;;;;;;;;;22.25;21.75;22.60;99.90;;;;;;4954351;28;8827;-65
2022/09/14 11:18:37;;;;;;;;;21.25;21.25;22.60;99.90;;;;;;4984430;28;8927;-65
2022/09/14 11:21:16;;;;;;;;;20.00;20.00;22.60;99.90;;;;;;4940733;28;8835;-67
2022/09/14 11:23:59;;;;;;;;;22.00;22.00;22.60;99.90;;;;;;4940656;28;8862;-69
2022/09/14 11:26:53;;;;;;;;;24.00;24.00;22.50;99.90;;;;;;4952195;28;8871;-69
2022/09/14 11:30:03;;;;;;;;;24.50;24.50;22.50;99.90;;;;;;4970804;28;8858;-68
2022/09/14 11:32:51;;;;;;;;;20.75;20.75;22.40;99.90;;;;;;4957744;28;8917;-64
2022/09/14 11:35:28;;;;;;;;;21.75;21.75;22.50;99.90;;;;;;4953126;28;8843;-64
2022/09/14 11:38:03;;;;;;;;;19.50;19.50;22.50;99.90;;;;;;4957385;28;8895;-63
2022/09/14 11:41:09;;;;;;;;;22.75;22.75;22.60;99.90;;;;;;4953333;28;8854;-64
2022/09/14 11:43:59;;;;;;;;;21.00;21.00;22.50;99.90;;;;;;4933718;28;9039;-63
2022/09/14 11:47:13;;;;;;;;;21.00;21.00;22.40;99.90;;;;;;4955887;28;8850;-67
2022/09/14 11:50:07;;;;;;;;;24.00;24.00;22.30;99.90;;;;;;4956843;28;8854;-67
2022/09/14 11:52:40;;;;;;;;;21.50;21.50;22.40;99.90;;;;;;4965010;28;8878;-65
2022/09/14 11:55:17;;;;;;;;;22.75;22.75;22.30;99.90;;;;;;4923074;28;8878;-66
2022/09/14 11:57:48;;;;;;;;;22.00;22.00;22.30;99.90;;;;;;4934818;28;8993;-67
2022/09/14 12:00:26;;;;;;;;;20.25;20.25;22.30;99.90;;;;;;4936560;28;9643;-67
2022/09/14 12:03:23;;;;;;;;;21.50;21.50;22.30;99.90;;;;;;4934308;28;8908;-67
2022/09/14 12:05:55;;;;;;;;;25.00;25.00;22.30;99.90;;;;;;4959612;28;8908;-66
2022/09/14 12:08:28;;;;;;;;;24.00;24.00;22.20;99.90;;;;;;4932103;28;8862;-65
2022/09/14 12:11:08;;;;;;;;;22.50;22.50;22.20;99.90;;;;;;4953857;28;8937;-65
2022/09/14 12:13:41;;;;;;;;;24.00;24.00;22.20;99.90;;;;;;4930035;28;8865;-65
2022/09/14 12:16:11;;;;;;;;;26.33;26.33;22.30;99.90;;;;;;4949153;28;8950;-63
2022/09/14 12:18:45;;;;;;;;;24.67;24.67;22.30;99.90;;;;;;4932609;28;9184;-68
2022/09/14 12:21:21;;;;;;;;;20.33;20.33;22.20;99.90;;;;;;4939783;28;8935;-67
2022/09/14 12:23:58;;;;;;;;;26.25;26.25;22.30;99.90;;;;;;4934196;28;9035;-68
2022/09/14 12:26:32;;;;;;;;;25.00;25.00;22.20;99.90;;;;;;4927521;28;8842;-67
2022/09/14 12:29:07;;;;;;;;;25.67;25.67;22.20;99.90;;;;;;4936943;28;8938;-69
2022/09/14 12:31:48;;;;;;;;;23.67;23.67;22.30;99.90;;;;;;4936364;28;9055;-64
2022/09/14 12:34:24;;;;;;;;;25.00;25.00;22.30;99.90;;;;;;4940672;28;9191;-65
2022/09/14 12:36:56;;;;;;;;;24.33;24.33;22.30;99.90;;;;;;4935092;28;8978;-68
2022/09/14 12:39:33;;;;;;;;;18.33;18.33;22.40;99.90;;;;;;4960508;28;9053;-68
2022/09/14 12:42:28;;;;;;;;;25.00;24.33;22.30;99.90;;;;;;4936045;28;8953;-68
2022/09/14 12:45:54;;;;;;;;;23.67;23.67;22.30;99.90;;;;;;4960732;28;8937;-67
2022/09/14 12:48:46;;;;;;;;;26.33;26.33;22.30;99.90;;;;;;4929672;28;8974;-68
2022/09/14 12:51:31;;;;;;;;;27.33;27.33;22.40;99.90;;;;;;4964119;28;9036;-63
2022/09/14 12:54:08;;;;;;;;;24.75;24.75;22.50;99.90;;;;;;4942744;28;9081;-64
2022/09/14 12:57:06;;;;;;;;;27.33;27.33;22.70;99.90;;;;;;4937770;28;9585;-66
2022/09/14 13:00:03;;;;;;;;;26.75;24.75;22.70;99.90;;;;;;4934407;28;9025;-67
2022/09/14 13:03:05;;;;;;;;;23.00;23.00;22.70;99.90;;;;;;4935535;28;8888;-68
2022/09/14 13:05:34;;;;;;;;;25.25;25.25;23.00;99.90;;;;;;4965356;28;8895;-67
2022/09/14 13:08:17;;;;;;;;;22.75;22.50;23.00;99.90;;;;;;4938800;28;8885;-63
2022/09/14 13:10:52;;;;;;;;;26.00;25.75;23.00;99.90;;;;;;4930394;28;11566;-64
2022/09/14 13:13:30;;;;;;;;;27.00;27.00;23.20;99.90;;;;;;4938149;28;8865;-63
2022/09/14 13:16:05;;;;;;;;;23.75;23.75;23.30;99.90;;;;;;4952688;28;9014;-68
2022/09/14 13:18:37;;;;;;;;;27.33;26.00;23.30;99.90;;;;;;4935748;28;8873;-68
2022/09/14 13:21:23;;;;;;;;;27.67;27.67;23.30;99.90;;;;;;4953492;28;9035;-63
2022/09/14 13:23:54;;;;;;;;;29.00;27.00;23.30;99.90;;;;;;4964305;28;9018;-65
2022/09/14 13:26:28;;;;;;;;;30.33;30.33;23.30;99.90;;;;;;4938004;28;9118;-68
2022/09/14 13:29:00;;;;;;;;;30.67;29.67;23.30;99.90;;;;;;4964462;28;9118;-68
2022/09/14 13:31:36;;;;;;;;;28.00;28.00;23.40;99.90;;;;;;4928019;28;8931;-68